sensor_id;sensor_type;location;lat;lon;timestamp;P1;durP1;ratioP1;P2;durP2;ratioP2
4895;SDS011;2463;49.948;8.472;2024-03-08T00:00:34;104.28;;;11.82;;
4895;SDS011;2463;49.948;8.472;2024-03-08T00:03:01;112.53;;;12.40;;
4895;SDS011;2463;49.948;8.472;2024-03-08T00:05:29;106.32;;;11.00;;
4895;SDS011;2463;49.948;8.472;2024-03-08T00:07:55;107.07;;;12.45;;
4895;SDS011;2463;49.948;8.472;2024-03-08T00:10:22;99.70;;;10.05;;
4895;SDS011;2463;49.948;8.472;2024-03-08T00:12:52;100.03;;;10.07;;
4895;SDS011;2463;49.948;8.472;2024-03-08T00:15:19;104.55;;;10.98;;
4895;SDS011;2463;49.948;8.472;2024-03-08T00:17:49;103.82;;;11.18;;
4895;SDS011;2463;49.948;8.472;2024-03-08T00:20:16;103.78;;;10.95;;
4895;SDS011;2463;49.948;8.472;2024-03-08T00:22:46;101.35;;;10.35;;
4895;SDS011;2463;49.948;8.472;2024-03-08T00:25:12;100.28;;;9.80;;
4895;SDS011;2463;49.948;8.472;2024-03-08T00:27:39;106.03;;;11.98;;
4895;SDS011;2463;49.948;8.472;2024-03-08T00:30:07;104.05;;;11.27;;
4895;SDS011;2463;49.948;8.472;2024-03-08T00:32:34;104.43;;;11.30;;
4895;SDS011;2463;49.948;8.472;2024-03-08T00:35:02;100.50;;;10.38;;
4895;SDS011;2463;49.948;8.472;2024-03-08T00:37:29;101.15;;;11.35;;
4895;SDS011;2463;49.948;8.472;2024-03-08T00:39:56;101.32;;;10.40;;
4895;SDS011;2463;49.948;8.472;2024-03-08T00:42:23;102.35;;;10.07;;
4895;SDS011;2463;49.948;8.472;2024-03-08T00:44:50;104.65;;;11.57;;
4895;SDS011;2463;49.948;8.472;2024-03-08T00:47:17;103.60;;;11.25;;
4895;SDS011;2463;49.948;8.472;2024-03-08T00:49:45;100.90;;;11.35;;
4895;SDS011;2463;49.948;8.472;2024-03-08T00:52:12;101.65;;;11.77;;
4895;SDS011;2463;49.948;8.472;2024-03-08T00:54:39;107.20;;;11.30;;
4895;SDS011;2463;49.948;8.472;2024-03-08T00:57:06;102.10;;;11.60;;
4895;SDS011;2463;49.948;8.472;2024-03-08T00:59:33;102.90;;;11.70;;
4895;SDS011;2463;49.948;8.472;2024-03-08T01:02:00;101.55;;;11.00;;
4895;SDS011;2463;49.948;8.472;2024-03-08T01:04:28;103.13;;;11.10;;
4895;SDS011;2463;49.948;8.472;2024-03-08T01:06:59;105.47;;;12.48;;
4895;SDS011;2463;49.948;8.472;2024-03-08T01:09:26;103.63;;;12.02;;
4895;SDS011;2463;49.948;8.472;2024-03-08T01:11:56;109.00;;;11.68;;
4895;SDS011;2463;49.948;8.472;2024-03-08T01:14:23;109.70;;;11.35;;
4895;SDS011;2463;49.948;8.472;2024-03-08T01:16:52;108.43;;;11.00;;
4895;SDS011;2463;49.948;8.472;2024-03-08T01:19:19;106.28;;;11.68;;
4895;SDS011;2463;49.948;8.472;2024-03-08T01:21:45;105.45;;;12.30;;
4895;SDS011;2463;49.948;8.472;2024-03-08T01:24:12;107.55;;;11.98;;
4895;SDS011;2463;49.948;8.472;2024-03-08T01:26:39;104.03;;;11.48;;
4895;SDS011;2463;49.948;8.472;2024-03-08T01:29:06;105.40;;;11.55;;
4895;SDS011;2463;49.948;8.472;2024-03-08T01:31:32;101.10;;;11.63;;
4895;SDS011;2463;49.948;8.472;2024-03-08T01:33:59;108.03;;;12.50;;
4895;SDS011;2463;49.948;8.472;2024-03-08T01:36:26;101.80;;;10.05;;
4895;SDS011;2463;49.948;8.472;2024-03-08T01:38:53;104.57;;;11.18;;
4895;SDS011;2463;49.948;8.472;2024-03-08T01:41:20;106.65;;;11.70;;
4895;SDS011;2463;49.948;8.472;2024-03-08T01:43:46;103.55;;;11.63;;
4895;SDS011;2463;49.948;8.472;2024-03-08T01:46:15;109.25;;;10.95;;
4895;SDS011;2463;49.948;8.472;2024-03-08T01:48:44;107.15;;;11.25;;
4895;SDS011;2463;49.948;8.472;2024-03-08T01:51:12;104.20;;;11.25;;
4895;SDS011;2463;49.948;8.472;2024-03-08T01:53:41;103.68;;;10.85;;
4895;SDS011;2463;49.948;8.472;2024-03-08T01:56:12;109.40;;;11.57;;
4895;SDS011;2463;49.948;8.472;2024-03-08T01:58:43;103.03;;;11.48;;
4895;SDS011;2463;49.948;8.472;2024-03-08T02:01:10;105.78;;;10.90;;
4895;SDS011;2463;49.948;8.472;2024-03-08T02:03:41;108.82;;;12.35;;
4895;SDS011;2463;49.948;8.472;2024-03-08T02:06:12;102.28;;;12.13;;
4895;SDS011;2463;49.948;8.472;2024-03-08T02:08:44;104.68;;;11.20;;
4895;SDS011;2463;49.948;8.472;2024-03-08T02:11:11;101.90;;;10.93;;
4895;SDS011;2463;49.948;8.472;2024-03-08T02:13:39;100.05;;;10.05;;
4895;SDS011;2463;49.948;8.472;2024-03-08T02:16:05;100.20;;;9.85;;
4895;SDS011;2463;49.948;8.472;2024-03-08T02:18:34;103.03;;;11.20;;
4895;SDS011;2463;49.948;8.472;2024-03-08T02:21:02;106.00;;;11.77;;
4895;SDS011;2463;49.948;8.472;2024-03-08T02:23:30;103.80;;;11.50;;
4895;SDS011;2463;49.948;8.472;2024-03-08T02:25:59;101.82;;;9.70;;
4895;SDS011;2463;49.948;8.472;2024-03-08T02:28:26;105.95;;;11.57;;
4895;SDS011;2463;49.948;8.472;2024-03-08T02:30:53;101.57;;;11.25;;
4895;SDS011;2463;49.948;8.472;2024-03-08T02:33:22;101.85;;;11.07;;
4895;SDS011;2463;49.948;8.472;2024-03-08T02:35:50;127.45;;;11.95;;
4895;SDS011;2463;49.948;8.472;2024-03-08T02:38:20;100.78;;;10.73;;
4895;SDS011;2463;49.948;8.472;2024-03-08T02:40:49;100.35;;;9.77;;
4895;SDS011;2463;49.948;8.472;2024-03-08T02:43:18;102.05;;;10.00;;
4895;SDS011;2463;49.948;8.472;2024-03-08T02:45:46;102.05;;;10.85;;
4895;SDS011;2463;49.948;8.472;2024-03-08T02:48:13;102.65;;;12.52;;
4895;SDS011;2463;49.948;8.472;2024-03-08T02:50:41;102.13;;;11.38;;
4895;SDS011;2463;49.948;8.472;2024-03-08T02:53:12;106.00;;;11.02;;
4895;SDS011;2463;49.948;8.472;2024-03-08T02:55:40;104.13;;;10.30;;
4895;SDS011;2463;49.948;8.472;2024-03-08T02:58:08;110.05;;;11.52;;
4895;SDS011;2463;49.948;8.472;2024-03-08T03:00:37;102.32;;;10.32;;
4895;SDS011;2463;49.948;8.472;2024-03-08T03:03:08;101.85;;;11.65;;
4895;SDS011;2463;49.948;8.472;2024-03-08T03:05:35;107.85;;;13.18;;
4895;SDS011;2463;49.948;8.472;2024-03-08T03:08:02;104.10;;;11.55;;
4895;SDS011;2463;49.948;8.472;2024-03-08T03:10:35;106.05;;;11.15;;
4895;SDS011;2463;49.948;8.472;2024-03-08T03:13:02;108.95;;;10.95;;
4895;SDS011;2463;49.948;8.472;2024-03-08T03:15:30;103.65;;;12.18;;
4895;SDS011;2463;49.948;8.472;2024-03-08T03:17:57;102.13;;;11.10;;
4895;SDS011;2463;49.948;8.472;2024-03-08T03:20:24;105.80;;;10.75;;
4895;SDS011;2463;49.948;8.472;2024-03-08T03:22:53;106.43;;;11.10;;
4895;SDS011;2463;49.948;8.472;2024-03-08T03:25:20;101.80;;;9.63;;
4895;SDS011;2463;49.948;8.472;2024-03-08T03:27:55;104.00;;;11.80;;
4895;SDS011;2463;49.948;8.472;2024-03-08T03:30:24;102.20;;;10.50;;
4895;SDS011;2463;49.948;8.472;2024-03-08T03:32:53;104.45;;;10.93;;
4895;SDS011;2463;49.948;8.472;2024-03-08T03:35:21;105.35;;;11.63;;
4895;SDS011;2463;49.948;8.472;2024-03-08T03:37:48;105.70;;;11.52;;
4895;SDS011;2463;49.948;8.472;2024-03-08T03:40:35;106.28;;;12.00;;
4895;SDS011;2463;49.948;8.472;2024-03-08T03:43:02;103.05;;;10.77;;
4895;SDS011;2463;49.948;8.472;2024-03-08T03:45:30;105.57;;;11.88;;
4895;SDS011;2463;49.948;8.472;2024-03-08T03:48:03;106.30;;;10.68;;
4895;SDS011;2463;49.948;8.472;2024-03-08T03:50:31;103.50;;;10.45;;
4895;SDS011;2463;49.948;8.472;2024-03-08T03:53:01;108.65;;;12.18;;
4895;SDS011;2463;49.948;8.472;2024-03-08T03:55:28;104.07;;;10.80;;
4895;SDS011;2463;49.948;8.472;2024-03-08T03:57:55;107.78;;;13.60;;
4895;SDS011;2463;49.948;8.472;2024-03-08T04:00:22;110.93;;;12.65;;
4895;SDS011;2463;49.948;8.472;2024-03-08T04:02:49;107.30;;;10.32;;
4895;SDS011;2463;49.948;8.472;2024-03-08T04:05:17;103.88;;;10.88;;
4895;SDS011;2463;49.948;8.472;2024-03-08T04:07:44;102.93;;;11.27;;
4895;SDS011;2463;49.948;8.472;2024-03-08T04:10:11;103.78;;;10.80;;
4895;SDS011;2463;49.948;8.472;2024-03-08T04:12:38;104.90;;;10.88;;
4895;SDS011;2463;49.948;8.472;2024-03-08T04:15:04;109.70;;;12.50;;
4895;SDS011;2463;49.948;8.472;2024-03-08T04:17:33;106.25;;;12.02;;
4895;SDS011;2463;49.948;8.472;2024-03-08T04:20:04;104.38;;;11.63;;
4895;SDS011;2463;49.948;8.472;2024-03-08T04:22:36;102.60;;;10.75;;
4895;SDS011;2463;49.948;8.472;2024-03-08T04:25:03;113.30;;;12.95;;
4895;SDS011;2463;49.948;8.472;2024-03-08T04:27:30;107.60;;;10.98;;
4895;SDS011;2463;49.948;8.472;2024-03-08T04:29:58;111.75;;;13.10;;
4895;SDS011;2463;49.948;8.472;2024-03-08T04:32:25;106.03;;;11.80;;
4895;SDS011;2463;49.948;8.472;2024-03-08T04:34:52;113.43;;;12.70;;
4895;SDS011;2463;49.948;8.472;2024-03-08T04:37:18;105.85;;;13.60;;
4895;SDS011;2463;49.948;8.472;2024-03-08T04:39:48;111.97;;;12.70;;
4895;SDS011;2463;49.948;8.472;2024-03-08T04:42:14;108.10;;;11.73;;
4895;SDS011;2463;49.948;8.472;2024-03-08T04:44:42;111.95;;;12.73;;
4895;SDS011;2463;49.948;8.472;2024-03-08T04:47:09;105.18;;;11.00;;
4895;SDS011;2463;49.948;8.472;2024-03-08T04:49:37;108.35;;;12.38;;
4895;SDS011;2463;49.948;8.472;2024-03-08T04:52:03;103.35;;;11.93;;
4895;SDS011;2463;49.948;8.472;2024-03-08T04:54:30;105.80;;;11.20;;
4895;SDS011;2463;49.948;8.472;2024-03-08T04:56:57;116.30;;;11.93;;
4895;SDS011;2463;49.948;8.472;2024-03-08T04:59:26;109.68;;;12.73;;
4895;SDS011;2463;49.948;8.472;2024-03-08T05:01:54;105.65;;;12.52;;
4895;SDS011;2463;49.948;8.472;2024-03-08T05:04:20;106.57;;;12.32;;
4895;SDS011;2463;49.948;8.472;2024-03-08T05:06:48;108.25;;;11.73;;
4895;SDS011;2463;49.948;8.472;2024-03-08T05:09:15;107.53;;;10.82;;
4895;SDS011;2463;49.948;8.472;2024-03-08T05:11:42;103.25;;;11.25;;
4895;SDS011;2463;49.948;8.472;2024-03-08T05:14:13;102.40;;;10.98;;
4895;SDS011;2463;49.948;8.472;2024-03-08T05:16:46;108.57;;;11.25;;
4895;SDS011;2463;49.948;8.472;2024-03-08T05:19:15;103.82;;;11.50;;
4895;SDS011;2463;49.948;8.472;2024-03-08T05:21:48;106.47;;;12.68;;
4895;SDS011;2463;49.948;8.472;2024-03-08T05:24:16;106.07;;;11.93;;
4895;SDS011;2463;49.948;8.472;2024-03-08T05:26:44;112.75;;;12.38;;
4895;SDS011;2463;49.948;8.472;2024-03-08T05:29:12;106.70;;;11.98;;
4895;SDS011;2463;49.948;8.472;2024-03-08T05:31:50;110.00;;;11.73;;
4895;SDS011;2463;49.948;8.472;2024-03-08T05:34:20;106.32;;;11.48;;
4895;SDS011;2463;49.948;8.472;2024-03-08T05:36:48;106.30;;;10.95;;
4895;SDS011;2463;49.948;8.472;2024-03-08T05:39:16;104.47;;;11.48;;
4895;SDS011;2463;49.948;8.472;2024-03-08T05:41:44;105.85;;;11.98;;
4895;SDS011;2463;49.948;8.472;2024-03-08T05:44:12;105.93;;;12.32;;
4895;SDS011;2463;49.948;8.472;2024-03-08T05:46:39;106.80;;;13.57;;
4895;SDS011;2463;49.948;8.472;2024-03-08T05:49:06;109.47;;;15.00;;
4895;SDS011;2463;49.948;8.472;2024-03-08T05:51:34;111.30;;;13.10;;
4895;SDS011;2463;49.948;8.472;2024-03-08T05:54:01;105.93;;;12.45;;
4895;SDS011;2463;49.948;8.472;2024-03-08T05:56:29;107.70;;;11.55;;
4895;SDS011;2463;49.948;8.472;2024-03-08T05:58:56;106.32;;;11.50;;
4895;SDS011;2463;49.948;8.472;2024-03-08T06:01:27;110.60;;;12.25;;
4895;SDS011;2463;49.948;8.472;2024-03-08T06:03:54;115.25;;;12.98;;
4895;SDS011;2463;49.948;8.472;2024-03-08T06:06:23;105.85;;;12.15;;
4895;SDS011;2463;49.948;8.472;2024-03-08T06:08:50;107.90;;;12.57;;
4895;SDS011;2463;49.948;8.472;2024-03-08T06:11:19;108.10;;;13.35;;
4895;SDS011;2463;49.948;8.472;2024-03-08T06:13:46;104.20;;;10.80;;
4895;SDS011;2463;49.948;8.472;2024-03-08T06:16:14;105.95;;;11.10;;
4895;SDS011;2463;49.948;8.472;2024-03-08T06:18:40;109.85;;;14.45;;
4895;SDS011;2463;49.948;8.472;2024-03-08T06:21:08;107.03;;;11.10;;
4895;SDS011;2463;49.948;8.472;2024-03-08T06:23:35;107.78;;;11.57;;
4895;SDS011;2463;49.948;8.472;2024-03-08T06:26:04;103.82;;;11.35;;
4895;SDS011;2463;49.948;8.472;2024-03-08T06:28:31;110.82;;;13.07;;
4895;SDS011;2463;49.948;8.472;2024-03-08T06:30:58;106.55;;;13.07;;
4895;SDS011;2463;49.948;8.472;2024-03-08T06:33:25;108.15;;;11.80;;
4895;SDS011;2463;49.948;8.472;2024-03-08T06:35:55;108.60;;;12.73;;
4895;SDS011;2463;49.948;8.472;2024-03-08T06:38:23;111.07;;;11.88;;
4895;SDS011;2463;49.948;8.472;2024-03-08T06:40:51;113.30;;;13.40;;
4895;SDS011;2463;49.948;8.472;2024-03-08T06:43:18;106.90;;;10.50;;
4895;SDS011;2463;49.948;8.472;2024-03-08T06:45:45;106.93;;;12.18;;
4895;SDS011;2463;49.948;8.472;2024-03-08T06:48:15;107.25;;;11.82;;
4895;SDS011;2463;49.948;8.472;2024-03-08T06:50:43;103.43;;;11.00;;
4895;SDS011;2463;49.948;8.472;2024-03-08T06:53:13;105.50;;;11.57;;
4895;SDS011;2463;49.948;8.472;2024-03-08T06:55:40;107.55;;;11.55;;
4895;SDS011;2463;49.948;8.472;2024-03-08T06:58:06;104.30;;;12.77;;
4895;SDS011;2463;49.948;8.472;2024-03-08T07:00:33;110.20;;;12.30;;
4895;SDS011;2463;49.948;8.472;2024-03-08T07:03:00;107.60;;;12.95;;
4895;SDS011;2463;49.948;8.472;2024-03-08T07:05:27;104.63;;;11.73;;
4895;SDS011;2463;49.948;8.472;2024-03-08T07:07:57;108.65;;;13.63;;
4895;SDS011;2463;49.948;8.472;2024-03-08T07:10:24;103.28;;;12.48;;
4895;SDS011;2463;49.948;8.472;2024-03-08T07:12:51;107.45;;;11.65;;
4895;SDS011;2463;49.948;8.472;2024-03-08T07:15:21;108.07;;;13.20;;
4895;SDS011;2463;49.948;8.472;2024-03-08T07:17:49;102.80;;;11.30;;
4895;SDS011;2463;49.948;8.472;2024-03-08T07:20:18;105.85;;;12.30;;
4895;SDS011;2463;49.948;8.472;2024-03-08T07:22:46;105.30;;;12.02;;
4895;SDS011;2463;49.948;8.472;2024-03-08T07:25:18;107.00;;;13.50;;
4895;SDS011;2463;49.948;8.472;2024-03-08T07:27:51;111.85;;;12.30;;
4895;SDS011;2463;49.948;8.472;2024-03-08T07:30:20;113.20;;;12.75;;
4895;SDS011;2463;49.948;8.472;2024-03-08T07:33:10;110.35;;;13.07;;
4895;SDS011;2463;49.948;8.472;2024-03-08T07:35:41;145.95;;;13.02;;
4895;SDS011;2463;49.948;8.472;2024-03-08T07:38:11;106.60;;;11.75;;
4895;SDS011;2463;49.948;8.472;2024-03-08T07:40:38;109.78;;;12.65;;
4895;SDS011;2463;49.948;8.472;2024-03-08T07:43:12;107.00;;;13.48;;
4895;SDS011;2463;49.948;8.472;2024-03-08T07:45:39;104.45;;;10.35;;
4895;SDS011;2463;49.948;8.472;2024-03-08T07:48:06;106.53;;;12.23;;
4895;SDS011;2463;49.948;8.472;2024-03-08T07:50:39;106.88;;;11.52;;
4895;SDS011;2463;49.948;8.472;2024-03-08T07:53:07;100.65;;;10.98;;
4895;SDS011;2463;49.948;8.472;2024-03-08T07:55:34;106.22;;;11.52;;
4895;SDS011;2463;49.948;8.472;2024-03-08T07:58:02;101.60;;;11.38;;
4895;SDS011;2463;49.948;8.472;2024-03-08T08:00:32;107.20;;;11.55;;
4895;SDS011;2463;49.948;8.472;2024-03-08T08:02:58;101.22;;;11.85;;
4895;SDS011;2463;49.948;8.472;2024-03-08T08:05:25;105.65;;;13.07;;
4895;SDS011;2463;49.948;8.472;2024-03-08T08:07:52;102.05;;;11.23;;
4895;SDS011;2463;49.948;8.472;2024-03-08T08:10:19;102.65;;;11.52;;
4895;SDS011;2463;49.948;8.472;2024-03-08T08:12:51;106.65;;;11.93;;
4895;SDS011;2463;49.948;8.472;2024-03-08T08:15:19;107.88;;;13.15;;
4895;SDS011;2463;49.948;8.472;2024-03-08T08:17:46;106.03;;;10.65;;
4895;SDS011;2463;49.948;8.472;2024-03-08T08:20:13;103.57;;;11.20;;
4895;SDS011;2463;49.948;8.472;2024-03-08T08:22:41;98.32;;;10.30;;
4895;SDS011;2463;49.948;8.472;2024-03-08T08:25:09;101.88;;;11.52;;
4895;SDS011;2463;49.948;8.472;2024-03-08T08:27:40;100.95;;;9.85;;
4895;SDS011;2463;49.948;8.472;2024-03-08T08:30:08;98.70;;;10.68;;
4895;SDS011;2463;49.948;8.472;2024-03-08T08:32:37;100.85;;;11.27;;
4895;SDS011;2463;49.948;8.472;2024-03-08T08:35:10;100.47;;;10.82;;
4895;SDS011;2463;49.948;8.472;2024-03-08T08:37:39;103.93;;;11.45;;
4895;SDS011;2463;49.948;8.472;2024-03-08T08:40:06;101.30;;;11.05;;
4895;SDS011;2463;49.948;8.472;2024-03-08T08:42:40;99.30;;;10.68;;
4895;SDS011;2463;49.948;8.472;2024-03-08T08:45:08;96.45;;;10.32;;
4895;SDS011;2463;49.948;8.472;2024-03-08T08:47:42;102.10;;;10.85;;
4895;SDS011;2463;49.948;8.472;2024-03-08T08:50:09;99.75;;;10.52;;
4895;SDS011;2463;49.948;8.472;2024-03-08T08:52:38;101.30;;;10.82;;
4895;SDS011;2463;49.948;8.472;2024-03-08T08:55:06;99.50;;;11.50;;
4895;SDS011;2463;49.948;8.472;2024-03-08T08:57:33;97.72;;;10.23;;
4895;SDS011;2463;49.948;8.472;2024-03-08T08:59:59;97.68;;;9.77;;
4895;SDS011;2463;49.948;8.472;2024-03-08T09:02:26;97.85;;;10.65;;
4895;SDS011;2463;49.948;8.472;2024-03-08T09:04:53;98.80;;;10.70;;
4895;SDS011;2463;49.948;8.472;2024-03-08T09:07:20;96.72;;;10.07;;
4895;SDS011;2463;49.948;8.472;2024-03-08T09:09:48;98.45;;;9.60;;
4895;SDS011;2463;49.948;8.472;2024-03-08T09:12:14;95.65;;;10.10;;
4895;SDS011;2463;49.948;8.472;2024-03-08T09:14:42;99.03;;;10.60;;
4895;SDS011;2463;49.948;8.472;2024-03-08T09:17:09;96.70;;;9.43;;
4895;SDS011;2463;49.948;8.472;2024-03-08T09:19:35;98.55;;;10.88;;
4895;SDS011;2463;49.948;8.472;2024-03-08T09:22:03;96.30;;;9.18;;
4895;SDS011;2463;49.948;8.472;2024-03-08T09:24:30;95.22;;;9.75;;
4895;SDS011;2463;49.948;8.472;2024-03-08T09:26:57;97.47;;;10.48;;
4895;SDS011;2463;49.948;8.472;2024-03-08T09:29:26;95.47;;;10.35;;
4895;SDS011;2463;49.948;8.472;2024-03-08T09:31:53;98.85;;;9.73;;
4895;SDS011;2463;49.948;8.472;2024-03-08T09:34:20;97.15;;;11.18;;
4895;SDS011;2463;49.948;8.472;2024-03-08T09:36:54;93.70;;;9.45;;
4895;SDS011;2463;49.948;8.472;2024-03-08T09:39:20;93.63;;;9.07;;
4895;SDS011;2463;49.948;8.472;2024-03-08T09:41:50;94.18;;;8.77;;
4895;SDS011;2463;49.948;8.472;2024-03-08T09:44:16;92.80;;;8.10;;
4895;SDS011;2463;49.948;8.472;2024-03-08T09:46:44;94.70;;;9.57;;
4895;SDS011;2463;49.948;8.472;2024-03-08T09:49:13;91.70;;;8.40;;
4895;SDS011;2463;49.948;8.472;2024-03-08T09:51:40;93.63;;;9.27;;
4895;SDS011;2463;49.948;8.472;2024-03-08T09:54:07;91.40;;;8.80;;
4895;SDS011;2463;49.948;8.472;2024-03-08T09:56:45;93.77;;;9.80;;
4895;SDS011;2463;49.948;8.472;2024-03-08T09:59:13;90.95;;;8.75;;
4895;SDS011;2463;49.948;8.472;2024-03-08T10:01:40;93.53;;;8.90;;
4895;SDS011;2463;49.948;8.472;2024-03-08T10:04:07;94.43;;;9.30;;
4895;SDS011;2463;49.948;8.472;2024-03-08T10:06:36;94.30;;;9.40;;
4895;SDS011;2463;49.948;8.472;2024-03-08T10:09:02;91.97;;;8.20;;
4895;SDS011;2463;49.948;8.472;2024-03-08T10:11:32;91.23;;;8.27;;
4895;SDS011;2463;49.948;8.472;2024-03-08T10:14:00;91.30;;;8.73;;
4895;SDS011;2463;49.948;8.472;2024-03-08T10:16:27;94.50;;;10.00;;
4895;SDS011;2463;49.948;8.472;2024-03-08T10:18:56;91.97;;;9.00;;
4895;SDS011;2463;49.948;8.472;2024-03-08T10:21:23;90.90;;;8.37;;
4895;SDS011;2463;49.948;8.472;2024-03-08T10:23:51;90.93;;;9.50;;
4895;SDS011;2463;49.948;8.472;2024-03-08T10:26:18;92.20;;;9.37;;
4895;SDS011;2463;49.948;8.472;2024-03-08T10:28:48;94.87;;;10.27;;
4895;SDS011;2463;49.948;8.472;2024-03-08T10:31:16;92.47;;;9.40;;
4895;SDS011;2463;49.948;8.472;2024-03-08T10:33:45;90.73;;;8.63;;
4895;SDS011;2463;49.948;8.472;2024-03-08T10:36:13;88.03;;;8.50;;
4895;SDS011;2463;49.948;8.472;2024-03-08T10:38:41;92.90;;;9.00;;
4895;SDS011;2463;49.948;8.472;2024-03-08T10:41:14;91.50;;;8.63;;
4895;SDS011;2463;49.948;8.472;2024-03-08T10:43:52;94.77;;;9.73;;
4895;SDS011;2463;49.948;8.472;2024-03-08T10:46:26;96.00;;;9.73;;
4895;SDS011;2463;49.948;8.472;2024-03-08T10:49:00;95.07;;;8.80;;
4895;SDS011;2463;49.948;8.472;2024-03-08T10:51:30;92.20;;;9.10;;
4895;SDS011;2463;49.948;8.472;2024-03-08T10:53:58;94.37;;;9.03;;
4895;SDS011;2463;49.948;8.472;2024-03-08T10:56:26;91.60;;;9.40;;
4895;SDS011;2463;49.948;8.472;2024-03-08T10:58:54;93.00;;;8.40;;
4895;SDS011;2463;49.948;8.472;2024-03-08T11:01:22;91.47;;;9.07;;
4895;SDS011;2463;49.948;8.472;2024-03-08T11:03:52;90.57;;;9.13;;
4895;SDS011;2463;49.948;8.472;2024-03-08T11:12:17;90.80;;;8.60;;
4895;SDS011;2463;49.948;8.472;2024-03-08T11:14:50;92.87;;;10.47;;
4895;SDS011;2463;49.948;8.472;2024-03-08T11:17:21;94.43;;;10.40;;
4895;SDS011;2463;49.948;8.472;2024-03-08T11:19:49;93.70;;;9.23;;
4895;SDS011;2463;49.948;8.472;2024-03-08T11:22:22;96.63;;;9.67;;
4895;SDS011;2463;49.948;8.472;2024-03-08T11:24:53;90.90;;;8.53;;
4895;SDS011;2463;49.948;8.472;2024-03-08T11:27:28;94.27;;;10.07;;
4895;SDS011;2463;49.948;8.472;2024-03-08T11:30:01;91.97;;;8.80;;
4895;SDS011;2463;49.948;8.472;2024-03-08T11:32:44;93.60;;;9.63;;
4895;SDS011;2463;49.948;8.472;2024-03-08T11:35:31;93.37;;;9.50;;
4895;SDS011;2463;49.948;8.472;2024-03-08T11:37:58;94.03;;;9.87;;
4895;SDS011;2463;49.948;8.472;2024-03-08T11:40:26;92.87;;;9.93;;
4895;SDS011;2463;49.948;8.472;2024-03-08T11:42:53;90.90;;;9.00;;
4895;SDS011;2463;49.948;8.472;2024-03-08T11:45:21;92.90;;;9.10;;
4895;SDS011;2463;49.948;8.472;2024-03-08T11:47:48;91.40;;;9.40;;
4895;SDS011;2463;49.948;8.472;2024-03-08T11:50:16;92.10;;;10.00;;
4895;SDS011;2463;49.948;8.472;2024-03-08T11:52:45;91.40;;;9.07;;
4895;SDS011;2463;49.948;8.472;2024-03-08T11:55:12;91.00;;;9.37;;
4895;SDS011;2463;49.948;8.472;2024-03-08T11:57:39;92.60;;;9.47;;
4895;SDS011;2463;49.948;8.472;2024-03-08T12:00:14;90.63;;;9.63;;
4895;SDS011;2463;49.948;8.472;2024-03-08T12:03:00;88.50;;;9.10;;
4895;SDS011;2463;49.948;8.472;2024-03-08T12:05:28;87.67;;;8.13;;
4895;SDS011;2463;49.948;8.472;2024-03-08T12:07:58;91.07;;;8.97;;
4895;SDS011;2463;49.948;8.472;2024-03-08T12:10:25;90.97;;;9.80;;
4895;SDS011;2463;49.948;8.472;2024-03-08T12:12:54;87.30;;;8.40;;
4895;SDS011;2463;49.948;8.472;2024-03-08T12:15:22;89.13;;;9.13;;
4895;SDS011;2463;49.948;8.472;2024-03-08T12:17:50;89.57;;;9.73;;
4895;SDS011;2463;49.948;8.472;2024-03-08T12:20:19;90.90;;;9.03;;
4895;SDS011;2463;49.948;8.472;2024-03-08T12:22:50;89.40;;;8.67;;
4895;SDS011;2463;49.948;8.472;2024-03-08T12:25:22;93.53;;;10.10;;
4895;SDS011;2463;49.948;8.472;2024-03-08T12:27:54;89.90;;;8.80;;
4895;SDS011;2463;49.948;8.472;2024-03-08T12:35:24;95.20;;;9.27;;
4895;SDS011;2463;49.948;8.472;2024-03-08T12:37:52;95.10;;;10.20;;
4895;SDS011;2463;49.948;8.472;2024-03-08T12:40:29;91.40;;;8.13;;
4895;SDS011;2463;49.948;8.472;2024-03-08T12:42:58;94.00;;;9.30;;
4895;SDS011;2463;49.948;8.472;2024-03-08T12:45:25;92.90;;;8.43;;
4895;SDS011;2463;49.948;8.472;2024-03-08T12:47:53;94.30;;;11.40;;
4895;SDS011;2463;49.948;8.472;2024-03-08T12:50:21;95.53;;;9.47;;
4895;SDS011;2463;49.948;8.472;2024-03-08T12:52:49;92.23;;;8.80;;
4895;SDS011;2463;49.948;8.472;2024-03-08T12:55:19;93.10;;;9.43;;
4895;SDS011;2463;49.948;8.472;2024-03-08T12:57:46;91.17;;;9.43;;
4895;SDS011;2463;49.948;8.472;2024-03-08T13:00:14;94.20;;;9.80;;
4895;SDS011;2463;49.948;8.472;2024-03-08T13:02:49;95.00;;;11.20;;
4895;SDS011;2463;49.948;8.472;2024-03-08T13:05:17;91.97;;;9.60;;
4895;SDS011;2463;49.948;8.472;2024-03-08T13:07:44;90.77;;;8.93;;
4895;SDS011;2463;49.948;8.472;2024-03-08T13:10:13;90.70;;;8.87;;
4895;SDS011;2463;49.948;8.472;2024-03-08T13:12:43;91.47;;;9.50;;
4895;SDS011;2463;49.948;8.472;2024-03-08T13:15:09;94.13;;;9.33;;
4895;SDS011;2463;49.948;8.472;2024-03-08T13:17:41;98.17;;;9.63;;
4895;SDS011;2463;49.948;8.472;2024-03-08T13:20:08;93.83;;;11.10;;
4895;SDS011;2463;49.948;8.472;2024-03-08T13:22:45;93.13;;;9.60;;
4895;SDS011;2463;49.948;8.472;2024-03-08T13:25:13;93.23;;;9.43;;
4895;SDS011;2463;49.948;8.472;2024-03-08T13:27:40;92.67;;;10.17;;
4895;SDS011;2463;49.948;8.472;2024-03-08T13:30:09;92.50;;;8.77;;
4895;SDS011;2463;49.948;8.472;2024-03-08T13:32:42;91.90;;;9.30;;
4895;SDS011;2463;49.948;8.472;2024-03-08T13:35:10;94.70;;;9.43;;
4895;SDS011;2463;49.948;8.472;2024-03-08T13:37:40;95.18;;;8.82;;
4895;SDS011;2463;49.948;8.472;2024-03-08T13:40:07;96.60;;;10.00;;
4895;SDS011;2463;49.948;8.472;2024-03-08T13:42:40;98.37;;;10.10;;
4895;SDS011;2463;49.948;8.472;2024-03-08T13:45:10;94.35;;;9.30;;
4895;SDS011;2463;49.948;8.472;2024-03-08T13:47:40;98.30;;;9.70;;
4895;SDS011;2463;49.948;8.472;2024-03-08T13:50:07;92.57;;;8.63;;
4895;SDS011;2463;49.948;8.472;2024-03-08T13:52:38;101.53;;;10.13;;
4895;SDS011;2463;49.948;8.472;2024-03-08T13:55:05;92.07;;;8.53;;
4895;SDS011;2463;49.948;8.472;2024-03-08T13:57:33;92.33;;;8.60;;
4895;SDS011;2463;49.948;8.472;2024-03-08T13:59:59;96.60;;;9.88;;
4895;SDS011;2463;49.948;8.472;2024-03-08T14:02:26;96.38;;;10.32;;
4895;SDS011;2463;49.948;8.472;2024-03-08T14:04:54;95.53;;;9.75;;
4895;SDS011;2463;49.948;8.472;2024-03-08T14:07:21;96.27;;;9.57;;
4895;SDS011;2463;49.948;8.472;2024-03-08T14:09:49;95.13;;;9.32;;
4895;SDS011;2463;49.948;8.472;2024-03-08T14:12:19;94.95;;;9.38;;
4895;SDS011;2463;49.948;8.472;2024-03-08T14:14:47;97.30;;;8.90;;
4895;SDS011;2463;49.948;8.472;2024-03-08T14:17:14;95.70;;;9.63;;
4895;SDS011;2463;49.948;8.472;2024-03-08T14:19:43;94.72;;;9.35;;
4895;SDS011;2463;49.948;8.472;2024-03-08T14:22:10;93.53;;;10.02;;
4895;SDS011;2463;49.948;8.472;2024-03-08T14:24:40;93.72;;;8.50;;
4895;SDS011;2463;49.948;8.472;2024-03-08T14:27:08;95.63;;;9.13;;
4895;SDS011;2463;49.948;8.472;2024-03-08T14:29:36;97.43;;;10.15;;
4895;SDS011;2463;49.948;8.472;2024-03-08T14:32:02;92.07;;;8.60;;
4895;SDS011;2463;49.948;8.472;2024-03-08T14:34:32;95.55;;;8.80;;
4895;SDS011;2463;49.948;8.472;2024-03-08T14:37:00;96.80;;;10.07;;
4895;SDS011;2463;49.948;8.472;2024-03-08T14:39:30;97.05;;;9.63;;
4895;SDS011;2463;49.948;8.472;2024-03-08T14:41:57;94.18;;;8.90;;
4895;SDS011;2463;49.948;8.472;2024-03-08T14:44:24;95.55;;;9.27;;
4895;SDS011;2463;49.948;8.472;2024-03-08T14:46:52;97.20;;;9.02;;
4895;SDS011;2463;49.948;8.472;2024-03-08T14:49:19;93.93;;;8.63;;
4895;SDS011;2463;49.948;8.472;2024-03-08T14:51:45;93.80;;;9.05;;
4895;SDS011;2463;49.948;8.472;2024-03-08T14:54:12;94.97;;;9.05;;
4895;SDS011;2463;49.948;8.472;2024-03-08T14:56:39;94.30;;;8.93;;
4895;SDS011;2463;49.948;8.472;2024-03-08T14:59:07;93.07;;;8.55;;
4895;SDS011;2463;49.948;8.472;2024-03-08T15:01:35;96.13;;;9.25;;
4895;SDS011;2463;49.948;8.472;2024-03-08T15:04:02;98.03;;;9.60;;